Time;durP1;ratioP1;P1;durP2;ratioP2;P2;SDS_P1;SDS_P2;PMS_P1;PMS_P2;Temp;Humidity;BMP_temperature;BMP_pressure;BME280_temperature;BME280_humidity;BME280_pressure;Samples;Min_cycle;Max_cycle;Signal;HPM_P1;HPM_P2
2022/05/01 00:00:23;;;;;;;30.25;19.90;;;9.40;99.90;;;;;;4149401;28;20089;-72
2022/05/01 00:02:24;;;;;;;23.40;17.60;;;9.50;99.90;;;;;;4149445;28;20641;-71
2022/05/01 00:04:26;;;;;;;26.33;17.27;;;9.50;99.90;;;;;;4149800;28;20062;-71
2022/05/01 00:06:31;;;;;;;24.33;16.85;;;9.60;99.90;;;;;;4149284;28;20080;-71
2022/05/01 00:08:35;;;;;;;27.00;16.52;;;9.50;99.90;;;;;;4146426;28;20108;-71
2022/05/01 00:10:37;;;;;;;31.13;17.67;;;9.50;99.90;;;;;;4147831;28;20153;-72
2022/05/01 00:12:59;;;;;;;26.75;17.20;;;9.50;99.90;;;;;;4148523;28;20066;-71
2022/05/01 00:15:00;;;;;;;27.88;18.65;;;9.50;99.90;;;;;;4149531;28;20057;-73
2022/05/01 00:17:02;;;;;;;29.30;19.42;;;9.40;99.90;;;;;;4149993;28;20157;-72
2022/05/01 00:19:04;;;;;;;38.50;20.92;;;9.30;99.90;;;;;;4148758;28;20090;-72
2022/05/01 00:21:06;;;;;;;28.55;20.77;;;9.30;99.90;;;;;;4147306;28;20113;-72
2022/05/01 00:23:08;;;;;;;31.33;20.00;;;9.20;99.90;;;;;;4147670;28;20093;-73
2022/05/01 00:25:10;;;;;;;56.03;32.50;;;9.20;99.90;;;;;;4150111;28;20062;-72
2022/05/01 00:27:12;;;;;;;38.15;23.20;;;9.30;99.90;;;;;;4152022;28;20062;-72
2022/05/01 00:29:14;;;;;;;35.42;23.48;;;9.30;99.90;;;;;;4150117;28;20062;-73
2022/05/01 00:31:18;;;;;;;28.65;18.88;;;9.30;99.90;;;;;;4151660;28;20046;-73
2022/05/01 00:38:00;;;;;;;36.60;20.83;;;9.40;99.90;;;;;;4151690;28;20870;-73
2022/05/01 00:40:02;;;;;;;36.63;21.42;;;9.40;99.90;;;;;;4152100;28;21021;-73
2022/05/01 00:42:04;;;;;;;34.97;22.92;;;9.50;99.90;;;;;;4151285;28;20063;-73
2022/05/01 00:44:11;;;;;;;31.10;21.13;;;9.50;99.90;;;;;;4149935;28;20105;-73
2022/05/01 00:46:13;;;;;;;34.08;23.08;;;9.50;99.90;;;;;;4151957;28;20178;-72
2022/05/01 00:48:15;;;;;;;41.75;25.70;;;9.50;99.90;;;;;;4149031;28;20051;-72
2022/05/01 00:50:17;;;;;;;40.22;27.17;;;9.50;99.90;;;;;;4150854;28;20085;-72
2022/05/01 00:52:19;;;;;;;46.10;26.67;;;9.50;99.90;;;;;;4151384;28;20157;-73
2022/05/01 00:54:27;;;;;;;38.67;24.58;;;9.50;99.90;;;;;;4151271;28;20066;-73
2022/05/01 00:56:32;;;;;;;35.45;22.67;;;9.50;99.90;;;;;;4149222;28;20046;-72
2022/05/01 00:58:34;;;;;;;41.70;24.77;;;9.50;99.90;;;;;;4151157;28;20164;-72
2022/05/01 01:00:36;;;;;;;39.40;24.60;;;9.60;99.90;;;;;;4146892;28;20097;-73
2022/05/01 01:02:38;;;;;;;43.38;24.60;;;9.50;99.90;;;;;;4150413;28;20101;-73
2022/05/01 01:04:39;;;;;;;41.58;25.17;;;9.50;99.90;;;;;;4150069;28;20105;-73
2022/05/01 01:06:42;;;;;;;37.83;23.67;;;9.50;99.90;;;;;;4151436;28;20176;-72
2022/05/01 01:08:44;;;;;;;40.53;24.45;;;9.50;99.90;;;;;;4151389;28;20980;-72
2022/05/01 01:10:46;;;;;;;37.63;24.67;;;9.50;99.90;;;;;;4151840;28;20859;-72
2022/05/01 01:12:56;;;;;;;40.78;23.88;;;9.50;99.90;;;;;;4151309;28;20080;-72
2022/05/01 01:14:58;;;;;;;38.53;22.63;;;9.50;99.90;;;;;;4152153;28;20161;-72
2022/05/01 01:17:00;;;;;;;42.90;25.13;;;9.50;99.90;;;;;;4152248;28;20168;-72
2022/05/01 01:19:07;;;;;;;41.25;24.08;;;9.50;99.90;;;;;;4151412;28;20165;-73
2022/05/01 01:21:10;;;;;;;40.08;24.63;;;9.60;99.90;;;;;;4150225;28;20093;-72
2022/05/01 01:23:14;;;;;;;39.30;23.63;;;9.60;99.90;;;;;;4151217;28;20054;-73
2022/05/01 01:25:19;;;;;;;36.22;23.80;;;9.60;99.90;;;;;;4149612;28;20054;-73
2022/05/01 01:27:20;;;;;;;42.08;25.02;;;9.60;99.90;;;;;;4149801;28;20046;-73
2022/05/01 01:31:45;;;;;;;35.90;23.65;;;9.50;99.90;;;;;;4149196;28;20062;-72
2022/05/01 01:33:53;;;;;;;38.80;22.42;;;9.50;99.90;;;;;;4151491;28;20070;-72
2022/05/01 01:35:58;;;;;;;36.63;22.10;;;9.50;99.90;;;;;;4149573;28;20652;-72
2022/05/01 01:38:00;;;;;;;37.58;22.75;;;9.50;99.90;;;;;;4151051;28;20061;-72
2022/05/01 01:40:02;;;;;;;37.47;22.50;;;9.40;99.90;;;;;;4149875;28;20177;-73
2022/05/01 01:42:07;;;;;;;36.65;21.42;;;9.40;99.90;;;;;;4148689;28;20178;-73
2022/05/01 01:44:08;;;;;;;36.22;23.17;;;9.40;99.90;;;;;;4150413;28;20152;-73
2022/05/01 01:46:10;;;;;;;39.30;22.10;;;9.40;99.90;;;;;;4150573;28;20561;-73
2022/05/01 01:48:17;;;;;;;38.05;23.33;;;9.40;99.90;;;;;;4145564;28;20093;-73
2022/05/01 01:50:19;;;;;;;35.08;21.88;;;9.30;99.90;;;;;;4151038;28;20094;-72
2022/05/01 01:52:20;;;;;;;35.30;23.40;;;9.30;99.90;;;;;;4150790;28;20065;-72
2022/05/01 01:54:22;;;;;;;37.85;23.20;;;9.20;99.90;;;;;;4151497;28;20165;-73
2022/05/01 01:56:24;;;;;;;40.72;22.80;;;9.20;99.90;;;;;;4150782;28;20058;-73
2022/05/01 01:58:27;;;;;;;38.42;23.02;;;9.10;99.90;;;;;;4150904;28;20870;-72
2022/05/01 02:00:29;;;;;;;37.70;22.10;;;9.10;99.90;;;;;;4150135;28;20789;-73
2022/05/01 02:02:31;;;;;;;37.42;21.45;;;9.20;99.90;;;;;;4150853;28;20094;-73
2022/05/01 02:04:33;;;;;;;34.35;22.05;;;9.20;99.90;;;;;;4149114;28;20161;-73
2022/05/01 02:06:35;;;;;;;38.35;22.58;;;9.30;99.90;;;;;;4150409;28;20062;-73
2022/05/01 02:08:37;;;;;;;41.00;23.48;;;9.30;99.90;;;;;;4149175;28;20059;-73
2022/05/01 02:10:39;;;;;;;46.97;26.60;;;9.30;99.90;;;;;;4150866;28;20054;-72
2022/05/01 02:12:40;;;;;;;76.90;38.53;;;9.40;99.90;;;;;;4147387;28;20105;-73
2022/05/01 02:14:42;;;;;;;60.28;32.38;;;9.40;99.90;;;;;;4148773;28;20054;-72
2022/05/01 02:16:44;;;;;;;55.35;31.30;;;9.40;99.90;;;;;;4148864;28;20684;-73
2022/05/01 02:18:46;;;;;;;52.00;28.77;;;9.40;99.90;;;;;;4146185;28;20116;-72
2022/05/01 02:23:08;;;;;;;42.17;24.60;;;9.40;99.90;;;;;;4147941;28;20092;-73
2022/05/01 02:25:09;;;;;;;41.33;23.95;;;9.40;99.90;;;;;;4145214;28;20065;-73
2022/05/01 02:27:12;;;;;;;34.22;22.60;;;9.40;99.90;;;;;;4148607;28;20062;-73
2022/05/01 02:29:14;;;;;;;40.78;25.13;;;9.40;99.90;;;;;;4148236;28;20058;-73
2022/05/01 02:31:16;;;;;;;49.25;26.73;;;9.30;99.90;;;;;;4148302;28;20061;-73
2022/05/01 02:33:20;;;;;;;45.67;25.73;;;9.30;99.90;;;;;;4148849;28;20133;-73
2022/05/01 02:35:23;;;;;;;38.45;23.70;;;9.30;99.90;;;;;;4148223;28;20085;-72
2022/05/01 02:37:24;;;;;;;39.75;24.15;;;9.30;99.90;;;;;;4148431;28;20059;-72
2022/05/01 02:39:26;;;;;;;40.75;22.65;;;9.20;99.90;;;;;;4148383;28;20176;-72
2022/05/01 02:41:28;;;;;;;35.88;22.73;;;9.30;99.90;;;;;;4145648;28;20149;-72
2022/05/01 02:43:30;;;;;;;51.30;29.80;;;9.30;99.90;;;;;;4148754;28;20093;-72
2022/05/01 02:45:32;;;;;;;54.63;31.35;;;9.30;99.90;;;;;;4148764;28;20084;-73
2022/05/01 02:47:34;;;;;;;48.90;29.05;;;9.30;99.90;;;;;;4148339;28;20046;-73
2022/05/01 02:49:35;;;;;;;74.03;41.13;;;9.10;99.90;;;;;;4148482;28;20064;-72
2022/05/01 02:51:37;;;;;;;42.58;26.10;;;9.20;99.90;;;;;;4148197;28;20773;-73
2022/05/01 02:53:39;;;;;;;46.83;27.90;;;9.10;99.90;;;;;;4148162;28;20868;-73
2022/05/01 02:55:40;;;;;;;66.20;36.13;;;9.10;99.90;;;;;;4145125;28;20058;-73
2022/05/01 02:57:42;;;;;;;58.92;32.55;;;9.10;99.90;;;;;;4148225;28;20065;-73
2022/05/01 02:59:44;;;;;;;64.35;37.47;;;9.10;99.90;;;;;;4146317;28;20102;-73
2022/05/01 03:01:46;;;;;;;65.75;40.25;;;9.10;99.90;;;;;;4148265;28;20058;-73
2022/05/01 03:03:48;;;;;;;62.33;36.92;;;9.00;99.90;;;;;;4145345;28;20169;-72
2022/05/01 03:05:51;;;;;;;53.17;33.42;;;9.00;99.90;;;;;;4148067;28;20065;-72
2022/05/01 03:07:55;;;;;;;51.17;30.50;;;8.90;99.90;;;;;;4148107;28;20094;-73
2022/05/01 03:09:57;;;;;;;58.95;35.83;;;8.90;99.90;;;;;;4148069;28;20054;-73
2022/05/01 03:11:59;;;;;;;63.78;35.63;;;8.90;99.90;;;;;;4145379;28;20853;-73
2022/05/01 03:14:01;;;;;;;40.92;25.95;;;8.80;99.90;;;;;;4148178;28;20864;-76
2022/05/01 03:16:17;;;;;;;42.75;24.98;;;8.80;99.90;;;;;;4144462;28;20058;-73
2022/05/01 03:23:00;;;;;;;43.35;28.95;;;8.80;99.90;;;;;;4145683;28;20098;-71
2022/05/01 03:25:01;;;;;;;42.78;27.02;;;8.80;99.90;;;;;;4148054;28;20047;-71
2022/05/01 03:27:04;;;;;;;43.08;27.33;;;8.80;99.90;;;;;;4147758;28;20061;-71
2022/05/01 03:29:06;;;;;;;52.45;28.27;;;8.80;99.90;;;;;;4147946;28;20828;-73
2022/05/01 03:31:09;;;;;;;45.00;27.70;;;8.80;99.90;;;;;;4147878;28;20063;-73
2022/05/01 03:33:11;;;;;;;45.75;28.45;;;8.80;99.90;;;;;;4147830;28;20058;-73
2022/05/01 03:35:14;;;;;;;44.08;27.52;;;8.70;99.90;;;;;;4148137;28;20062;-73
2022/05/01 03:37:17;;;;;;;41.38;25.85;;;8.70;99.90;;;;;;4142767;28;20976;-73
2022/05/01 03:39:18;;;;;;;46.28;25.90;;;8.70;99.90;;;;;;4148194;28;20061;-71
2022/05/01 03:41:20;;;;;;;41.95;25.77;;;8.60;99.90;;;;;;4146421;28;20865;-71
2022/05/01 03:43:21;;;;;;;43.53;25.52;;;8.60;99.90;;;;;;4148018;28;20901;-71
2022/05/01 03:45:23;;;;;;;37.80;23.75;;;8.60;99.90;;;;;;4147855;28;20069;-71
2022/05/01 03:47:25;;;;;;;42.25;25.58;;;8.60;99.90;;;;;;4144024;28;20063;-70
2022/05/01 03:49:26;;;;;;;43.85;24.88;;;8.60;99.90;;;;;;4147698;28;20058;-71
2022/05/01 03:51:31;;;;;;;47.60;23.65;;;8.60;99.90;;;;;;4147713;28;20062;-71
2022/05/01 03:53:33;;;;;;;44.63;24.40;;;8.50;99.90;;;;;;4147467;28;20064;-71
2022/05/01 03:55:36;;;;;;;41.28;24.48;;;8.50;99.90;;;;;;4146797;28;20065;-71
2022/05/01 03:57:39;;;;;;;47.22;25.08;;;8.50;99.90;;;;;;4147123;28;20055;-71
2022/05/01 03:59:40;;;;;;;43.17;24.90;;;8.60;99.90;;;;;;4147720;28;20050;-70
2022/05/01 04:01:42;;;;;;;41.33;25.02;;;8.50;99.90;;;;;;4150011;28;20062;-71
2022/05/01 04:03:44;;;;;;;46.80;26.88;;;8.60;99.90;;;;;;4157792;28;20168;-71
2022/05/01 04:05:46;;;;;;;50.83;26.70;;;8.70;99.90;;;;;;4148928;28;20062;-71
2022/05/01 04:07:48;;;;;;;48.63;26.45;;;8.60;99.90;;;;;;4150150;28;20058;-71
2022/05/01 04:09:49;;;;;;;46.75;24.95;;;8.70;99.90;;;;;;4150092;28;20059;-71
2022/05/01 04:11:53;;;;;;;47.67;26.15;;;8.70;99.90;;;;;;4149996;28;20062;-71
2022/05/01 04:13:55;;;;;;;49.03;27.67;;;8.70;99.90;;;;;;4147494;28;20058;-71
2022/05/01 04:15:56;;;;;;;52.42;28.25;;;8.60;99.90;;;;;;4150226;28;20128;-71
2022/05/01 04:17:58;;;;;;;52.78;27.02;;;8.40;99.90;;;;;;4149901;28;20117;-71
2022/05/01 04:20:00;;;;;;;49.75;28.67;;;8.50;99.90;;;;;;4150485;28;20837;-71
2022/05/01 04:22:02;;;;;;;52.70;27.85;;;8.50;99.90;;;;;;4149488;28;20054;-71
2022/05/01 04:24:04;;;;;;;56.97;28.20;;;8.60;99.90;;;;;;4150462;28;20062;-71
2022/05/01 04:26:06;;;;;;;47.85;27.40;;;8.60;99.90;;;;;;4147827;28;20082;-73
2022/05/01 04:28:10;;;;;;;51.13;26.25;;;8.60;99.90;;;;;;4147829;28;20066;-73
2022/05/01 04:30:16;;;;;;;46.22;26.17;;;8.60;99.90;;;;;;4150254;28;20058;-73
2022/05/01 04:32:20;;;;;;;47.78;26.83;;;8.60;99.90;;;;;;4147106;28;20065;-73
2022/05/01 04:34:21;;;;;;;54.08;29.05;;;8.60;99.90;;;;;;4149539;28;20727;-73
2022/05/01 04:36:23;;;;;;;47.75;27.13;;;8.70;99.90;;;;;;4149679;28;21272;-73
2022/05/01 04:38:26;;;;;;;49.47;27.52;;;8.70;99.90;;;;;;4149909;28;20063;-73
2022/05/01 04:40:35;;;;;;;46.22;27.42;;;8.50;99.90;;;;;;4149443;28;20113;-73
2022/05/01 04:42:37;;;;;;;50.03;28.83;;;8.40;99.90;;;;;;4148801;28;20059;-72
2022/05/01 04:44:39;;;;;;;57.53;28.90;;;8.40;99.90;;;;;;4147547;28;20145;-73
2022/05/01 04:46:40;;;;;;;52.95;27.42;;;8.40;99.90;;;;;;4148225;28;20105;-72
2022/05/01 04:48:42;;;;;;;54.35;26.70;;;8.50;99.90;;;;;;4147181;28;20159;-72
2022/05/01 04:50:44;;;;;;;53.10;26.50;;;8.50;99.90;;;;;;4149579;28;20050;-72
2022/05/01 04:52:46;;;;;;;53.10;27.33;;;8.50;99.90;;;;;;4147358;28;20058;-73
2022/05/01 04:54:47;;;;;;;51.17;26.45;;;8.50;99.90;;;;;;4147070;28;20062;-73
2022/05/01 04:59:10;;;;;;;52.38;28.05;;;8.70;99.90;;;;;;4148907;28;20679;-72
2022/05/01 05:01:11;;;;;;;52.17;26.70;;;8.80;99.90;;;;;;4149096;28;20842;-73
2022/05/01 05:03:13;;;;;;;59.45;28.52;;;8.70;99.90;;;;;;4149232;28;20133;-73
2022/05/01 05:05:16;;;;;;;49.08;26.63;;;8.70;99.90;;;;;;4149849;28;20054;-72
2022/05/01 05:07:19;;;;;;;51.20;26.38;;;8.80;99.90;;;;;;4149732;28;21847;-72
2022/05/01 05:11:41;;;;;;;46.88;27.13;;;8.80;99.90;;;;;;4149138;28;20070;-73
2022/05/01 05:13:43;;;;;;;46.85;25.85;;;8.90;99.90;;;;;;4146984;28;20884;-72
2022/05/01 05:15:47;;;;;;;44.13;24.35;;;8.90;99.90;;;;;;4148960;28;20054;-72
2022/05/01 05:17:49;;;;;;;48.75;25.85;;;9.00;99.90;;;;;;4148042;28;20062;-72
2022/05/01 05:19:50;;;;;;;50.20;27.00;;;9.00;99.90;;;;;;4149821;28;20066;-72
2022/05/01 05:21:52;;;;;;;51.05;26.15;;;8.90;99.90;;;;;;4170583;22;20068;-73
2022/05/01 05:23:58;;;;;;;46.60;26.65;;;8.90;99.90;;;;;;4175970;28;20057;-73
2022/05/01 05:26:00;;;;;;;44.72;25.65;;;8.90;99.90;;;;;;4180497;28;20054;-74
2022/05/01 05:28:02;;;;;;;43.65;26.42;;;9.00;99.90;;;;;;4176914;28;20061;-74
2022/05/01 05:30:05;;;;;;;49.00;26.20;;;9.00;99.90;;;;;;4175415;28;20057;-74
2022/05/01 05:32:10;;;;;;;40.38;24.40;;;9.00;99.90;;;;;;4172624;28;20057;-74
2022/05/01 05:34:12;;;;;;;48.03;26.42;;;8.90;99.90;;;;;;4165520;28;20090;-74
2022/05/01 05:36:14;;;;;;;44.90;24.85;;;8.90;99.90;;;;;;4165195;28;20058;-74
2022/05/01 05:38:16;;;;;;;48.40;26.40;;;8.90;99.90;;;;;;4163805;28;20757;-74
2022/05/01 05:40:18;;;;;;;52.70;25.33;;;9.00;99.90;;;;;;4165022;28;20792;-74
2022/05/01 05:42:20;;;;;;;40.22;24.80;;;8.90;99.90;;;;;;4167793;28;20823;-74
2022/05/01 05:44:24;;;;;;;40.92;24.42;;;9.00;99.90;;;;;;4166858;28;20073;-74
2022/05/01 05:46:26;;;;;;;36.22;23.02;;;8.90;99.90;;;;;;4165136;28;20667;-75
2022/05/01 05:48:28;;;;;;;38.70;22.27;;;9.00;99.90;;;;;;4165139;28;20151;-75
2022/05/01 05:50:30;;;;;;;42.63;24.65;;;9.00;99.90;;;;;;4164821;28;20054;-74
2022/05/01 05:52:32;;;;;;;39.22;23.92;;;9.00;99.90;;;;;;4164566;28;20068;-75
2022/05/01 05:54:34;;;;;;;40.05;24.00;;;8.90;99.90;;;;;;4164924;28;20060;-74
2022/05/01 05:56:36;;;;;;;41.97;23.95;;;8.80;99.90;;;;;;4163620;28;20824;-74
2022/05/01 05:58:37;;;;;;;42.65;23.27;;;8.70;99.90;;;;;;4165338;28;20060;-74
2022/05/01 06:00:39;;;;;;;36.75;22.27;;;8.80;99.90;;;;;;4163068;28;20065;-74
2022/05/01 06:02:41;;;;;;;41.55;24.27;;;8.90;99.90;;;;;;4164520;28;20057;-75
2022/05/01 06:04:43;;;;;;;40.53;24.30;;;8.90;99.90;;;;;;4163045;28;20081;-74
2022/05/01 06:06:45;;;;;;;39.22;23.67;;;9.00;99.90;;;;;;4164827;28;20718;-74
2022/05/01 06:08:46;;;;;;;36.17;22.10;;;9.10;99.90;;;;;;4163760;28;20112;-74
2022/05/01 06:10:48;;;;;;;41.80;24.05;;;9.10;99.90;;;;;;4164720;28;20053;-75
2022/05/01 06:12:50;;;;;;;42.85;24.63;;;9.10;99.90;;;;;;4164675;28;20068;-74
2022/05/01 06:14:53;;;;;;;41.03;25.00;;;9.20;99.90;;;;;;4165009;28;20097;-74
2022/05/01 06:16:55;;;;;;;39.03;24.25;;;9.20;99.90;;;;;;4163619;28;20068;-74
2022/05/01 06:18:57;;;;;;;43.65;25.48;;;9.20;99.90;;;;;;4164883;28;20046;-75
2022/05/01 06:20:59;;;;;;;39.42;24.50;;;9.30;99.90;;;;;;4164254;28;20793;-74
2022/05/01 06:23:01;;;;;;;41.83;24.75;;;9.30;99.90;;;;;;4164067;28;20062;-75
2022/05/01 06:25:03;;;;;;;39.35;23.85;;;9.30;99.90;;;;;;4163651;28;20062;-74
2022/05/01 06:27:05;;;;;;;38.90;24.58;;;9.30;99.90;;;;;;4164916;28;20710;-73
2022/05/01 06:29:06;;;;;;;42.53;23.48;;;9.30;99.90;;;;;;4163437;28;20054;-74
2022/05/01 06:31:08;;;;;;;36.22;23.10;;;9.30;99.90;;;;;;4164535;28;20226;-74
2022/05/01 06:33:12;;;;;;;39.88;23.98;;;9.40;99.90;;;;;;4162966;28;20796;-75
2022/05/01 06:35:16;;;;;;;39.30;23.50;;;9.40;99.90;;;;;;4164513;28;20233;-75
2022/05/01 06:37:18;;;;;;;35.85;23.58;;;9.40;99.90;;;;;;4162720;28;20160;-74
2022/05/01 06:39:20;;;;;;;41.80;23.88;;;9.40;99.90;;;;;;4164689;28;20105;-75
2022/05/01 06:41:21;;;;;;;40.65;24.75;;;9.50;99.90;;;;;;4165524;28;20133;-75
2022/05/01 06:43:23;;;;;;;39.17;24.05;;;9.60;99.90;;;;;;4164428;28;20061;-75
2022/05/01 06:45:25;;;;;;;37.97;23.05;;;9.60;99.90;;;;;;4163047;28;20132;-75
2022/05/01 06:47:27;;;;;;;34.25;22.33;;;9.60;99.90;;;;;;4164066;28;20873;-74
2022/05/01 06:49:28;;;;;;;38.05;22.02;;;9.80;99.90;;;;;;4164062;28;20085;-74
2022/05/01 06:51:30;;;;;;;39.33;23.25;;;9.80;99.90;;;;;;4159103;28;20058;-75
2022/05/01 06:53:32;;;;;;;34.63;23.33;;;9.90;99.90;;;;;;4163174;28;20105;-74
2022/05/01 06:55:34;;;;;;;34.35;21.48;;;9.90;99.90;;;;;;4162361;28;20066;-75
2022/05/01 06:57:36;;;;;;;36.63;21.52;;;9.90;99.90;;;;;;4164148;28;20127;-73
2022/05/01 06:59:38;;;;;;;32.42;21.15;;;9.90;99.90;;;;;;4164158;28;20057;-76
2022/05/01 07:01:39;;;;;;;34.85;20.85;;;9.90;99.90;;;;;;4161857;28;20133;-74
2022/05/01 07:03:42;;;;;;;37.20;20.77;;;9.80;99.90;;;;;;4162299;28;20061;-74
2022/05/01 07:05:44;;;;;;;35.50;21.92;;;9.80;99.90;;;;;;4163843;28;20085;-74
2022/05/01 07:07:48;;;;;;;36.58;21.13;;;9.80;99.90;;;;;;4163549;28;20057;-74
2022/05/01 07:09:50;;;;;;;35.67;21.10;;;9.90;99.90;;;;;;4161426;28;20101;-75
2022/05/01 07:11:52;;;;;;;30.75;19.90;;;10.00;99.90;;;;;;4163392;28;20120;-74
2022/05/01 07:13:54;;;;;;;27.85;19.58;;;10.00;99.90;;;;;;4157772;28;20085;-74
2022/05/01 07:15:56;;;;;;;33.35;21.15;;;10.00;99.90;;;;;;4159059;28;20062;-73
2022/05/01 07:17:58;;;;;;;30.95;20.60;;;10.00;99.90;;;;;;4160390;28;20273;-74
2022/05/01 07:20:00;;;;;;;31.30;21.30;;;10.10;99.90;;;;;;4155910;28;20057;-74
2022/05/01 07:22:02;;;;;;;30.75;19.70;;;10.10;99.90;;;;;;4160081;28;20054;-74
2022/05/01 07:24:04;;;;;;;37.78;23.05;;;10.20;99.90;;;;;;4157883;28;20225;-74
2022/05/01 07:26:06;;;;;;;35.35;21.73;;;10.20;99.90;;;;;;4160398;28;20170;-74
2022/05/01 07:28:08;;;;;;;33.75;20.95;;;10.20;99.90;;;;;;4158293;28;20952;-74
2022/05/01 07:30:10;;;;;;;34.17;22.17;;;10.30;99.90;;;;;;4161605;28;20059;-75
2022/05/01 07:32:12;;;;;;;30.50;20.02;;;10.30;99.90;;;;;;4168170;28;20058;-75
2022/05/01 07:34:14;;;;;;;33.60;19.10;;;10.30;99.90;;;;;;4172702;28;20064;-74
2022/05/01 07:36:15;;;;;;;29.45;19.48;;;10.30;99.90;;;;;;4161343;28;20058;-75
2022/05/01 07:38:18;;;;;;;32.45;18.83;;;10.30;99.90;;;;;;4158102;28;20105;-75
2022/05/01 07:40:25;;;;;;;27.50;18.63;;;10.40;99.90;;;;;;4159025;28;20059;-74
2022/05/01 07:42:27;;;;;;;34.15;19.00;;;10.50;99.90;;;;;;4166043;28;20874;-74
2022/05/01 07:44:29;;;;;;;26.60;18.45;;;10.50;99.90;;;;;;4165712;28;20181;-75
2022/05/01 07:46:31;;;;;;;32.28;20.95;;;10.60;99.90;;;;;;4166392;28;20069;-75
2022/05/01 07:48:33;;;;;;;26.90;19.40;;;10.70;99.90;;;;;;4165845;28;20053;-76
2022/05/01 07:50:34;;;;;;;32.50;18.27;;;10.70;99.90;;;;;;4165110;28;20777;-73
2022/05/01 07:52:36;;;;;;;32.03;19.42;;;10.70;99.90;;;;;;4165887;28;20132;-73
2022/05/01 07:54:38;;;;;;;25.35;16.95;;;10.80;99.90;;;;;;4166148;28;20062;-71
2022/05/01 07:56:40;;;;;;;26.75;18.30;;;10.90;99.90;;;;;;4166203;28;20119;-74
2022/05/01 07:58:42;;;;;;;25.02;16.95;;;11.00;99.90;;;;;;4166510;28;20054;-74
2022/05/01 08:00:44;;;;;;;22.25;16.73;;;11.10;99.90;;;;;;4166164;28;20057;-73
2022/05/01 08:05:07;;;;;;;33.97;18.88;;;11.30;97.70;;;;;;4159372;28;20112;-73
2022/05/01 08:07:10;;;;;;;24.00;17.52;;;11.20;97.50;;;;;;4159396;28;21145;-73
2022/05/01 08:09:12;;;;;;;24.83;15.77;;;11.20;97.80;;;;;;4162315;28;20054;-73
2022/05/01 08:11:14;;;;;;;25.25;17.25;;;11.30;97.60;;;;;;4159470;28;20058;-72
2022/05/01 08:13:16;;;;;;;21.77;15.25;;;11.50;97.60;;;;;;4160825;28;20417;-73
2022/05/01 08:15:19;;;;;;;17.70;14.32;;;11.60;96.30;;;;;;4164067;28;20072;-74
2022/05/01 08:17:21;;;;;;;22.15;13.57;;;11.70;96.10;;;;;;4164381;28;20123;-74
2022/05/01 08:21:44;;;;;;;17.27;13.27;;;11.70;96.20;;;;;;4164946;28;20054;-74
2022/05/01 08:23:45;;;;;;;23.30;14.60;;;11.90;95.90;;;;;;4172691;28;20050;-74
2022/05/01 08:25:47;;;;;;;22.50;15.35;;;12.00;95.40;;;;;;4164928;28;20196;-75
2022/05/01 08:27:49;;;;;;;21.70;15.15;;;12.20;95.10;;;;;;4167251;28;20084;-74
2022/05/01 08:29:51;;;;;;;24.73;14.82;;;12.30;92.80;;;;;;4163448;28;20057;-74
2022/05/01 08:31:54;;;;;;;21.52;14.52;;;12.40;93.90;;;;;;4161925;28;20085;-75
2022/05/01 08:33:56;;;;;;;17.48;13.50;;;12.50;93.70;;;;;;4163835;28;20054;-75
2022/05/01 08:35:58;;;;;;;18.60;13.80;;;12.60;93.20;;;;;;4164558;28;20058;-74
2022/05/01 08:38:00;;;;;;;17.45;13.60;;;12.60;91.60;;;;;;4165262;28;20144;-74
2022/05/01 08:40:02;;;;;;;17.50;13.63;;;12.60;91.40;;;;;;4170385;28;20065;-75
2022/05/01 08:42:04;;;;;;;20.65;13.15;;;12.70;90.90;;;;;;4156677;28;20608;-75
2022/05/01 08:44:13;;;;;;;22.27;14.02;;;12.60;90.70;;;;;;4156156;28;20081;-75
2022/05/01 08:46:23;;;;;;;24.67;14.63;;;12.50;91.10;;;;;;4165563;28;20084;-74
2022/05/01 08:48:44;;;;;;;17.23;13.67;;;12.50;91.70;;;;;;4163062;28;20065;-74
2022/05/01 08:50:47;;;;;;;21.33;14.65;;;12.50;92.20;;;;;;4159455;28;20988;-75
2022/05/01 08:52:50;;;;;;;18.42;12.70;;;12.50;91.00;;;;;;4160891;28;20857;-74
2022/05/01 08:54:53;;;;;;;18.27;13.07;;;12.60;91.70;;;;;;4161032;28;20066;-74
2022/05/01 08:56:56;;;;;;;20.60;13.25;;;12.70;91.20;;;;;;4154534;28;20054;-75
2022/05/01 08:59:00;;;;;;;20.52;14.07;;;12.80;91.20;;;;;;4161270;28;20148;-74
2022/05/01 09:01:02;;;;;;;18.65;12.65;;;12.90;91.20;;;;;;4158826;28;20786;-74
2022/05/01 09:03:07;;;;;;;17.83;13.05;;;12.90;90.00;;;;;;4165777;28;20124;-74
2022/05/01 09:05:11;;;;;;;16.75;12.68;;;12.90;90.30;;;;;;4161863;28;20054;-75
2022/05/01 09:07:14;;;;;;;17.58;13.30;;;13.00;88.80;;;;;;4160776;28;20089;-75
2022/05/01 09:09:19;;;;;;;17.80;13.15;;;12.90;87.80;;;;;;4162647;28;20058;-74
2022/05/01 09:13:42;;;;;;;18.33;13.98;;;13.00;89.80;;;;;;4165715;28;20058;-75
2022/05/01 09:15:44;;;;;;;21.25;13.02;;;13.20;89.10;;;;;;4165587;28;20053;-75
2022/05/01 09:18:00;;;;;;;17.15;12.63;;;13.30;89.10;;;;;;4165522;28;20248;-75
2022/05/01 09:20:07;;;;;;;14.10;11.60;;;13.50;88.80;;;;;;4164164;28;20667;-75
2022/05/01 09:22:09;;;;;;;18.52;12.13;;;13.50;88.00;;;;;;4162607;28;20061;-75
2022/05/01 09:24:11;;;;;;;18.55;13.38;;;13.50;87.90;;;;;;4163893;28;20065;-75
2022/05/01 09:26:18;;;;;;;18.92;12.52;;;13.60;85.80;;;;;;4165041;28;20064;-75
2022/05/01 09:28:23;;;;;;;19.38;13.13;;;13.60;86.50;;;;;;4165243;28;20125;-75
2022/05/01 09:30:31;;;;;;;16.15;13.00;;;13.60;86.70;;;;;;4163972;28;20057;-74
2022/05/01 09:32:38;;;;;;;18.65;12.80;;;13.60;87.30;;;;;;4163973;28;20907;-75
2022/05/01 09:34:43;;;;;;;17.10;12.63;;;13.70;87.20;;;;;;4161214;28;20803;-74
2022/05/01 09:36:45;;;;;;;13.88;11.43;;;13.70;84.60;;;;;;4164035;28;20156;-75
2022/05/01 09:39:02;;;;;;;18.33;12.48;;;13.50;85.50;;;;;;4159505;28;20836;-75
2022/05/01 09:41:15;;;;;;;15.00;11.32;;;13.40;84.90;;;;;;4162180;28;20984;-76
2022/05/01 09:43:34;;;;;;;14.13;10.98;;;13.40;84.40;;;;;;4161901;28;20173;-74
2022/05/01 09:45:36;;;;;;;14.55;11.82;;;13.50;83.90;;;;;;4162315;28;20108;-73
2022/05/01 09:47:43;;;;;;;14.27;10.95;;;13.50;82.50;;;;;;4158475;28;20058;-74
2022/05/01 09:49:50;;;;;;;14.63;10.48;;;13.50;82.40;;;;;;4159873;28;20163;-73
2022/05/01 09:51:57;;;;;;;12.90;11.27;;;13.40;83.00;;;;;;4157217;28;20062;-74
2022/05/01 09:54:01;;;;;;;13.70;11.35;;;13.30;81.20;;;;;;4160398;28;20062;-73
2022/05/01 09:56:03;;;;;;;13.77;11.38;;;13.30;82.00;;;;;;4162760;28;20051;-73
2022/05/01 09:58:10;;;;;;;13.57;10.75;;;13.40;82.50;;;;;;4161054;28;20069;-73
2022/05/01 10:00:13;;;;;;;16.48;13.02;;;13.40;83.00;;;;;;4161939;28;20089;-73
2022/05/01 10:02:14;;;;;;;16.77;11.07;;;13.40;81.50;;;;;;4160812;28;20054;-73
2022/05/01 10:04:20;;;;;;;13.60;11.98;;;13.40;82.70;;;;;;4160310;28;20061;-73
2022/05/01 10:06:24;;;;;;;16.20;11.25;;;13.30;80.80;;;;;;4160413;28;20201;-73
2022/05/01 10:08:26;;;;;;;13.63;10.93;;;13.20;82.00;;;;;;4163476;28;20124;-74
2022/05/01 10:10:28;;;;;;;13.60;10.88;;;13.30;84.70;;;;;;4159180;28;20077;-73
2022/05/01 10:12:36;;;;;;;16.42;11.80;;;13.40;83.80;;;;;;4176210;28;20164;-74
2022/05/01 10:14:37;;;;;;;16.38;12.65;;;13.40;83.30;;;;;;4177975;28;20057;-74
2022/05/01 10:16:41;;;;;;;16.23;11.73;;;13.30;81.40;;;;;;4162781;28;20061;-74
2022/05/01 10:18:45;;;;;;;14.02;10.55;;;13.00;81.60;;;;;;4161291;28;20860;-73
2022/05/01 10:21:07;;;;;;;15.55;11.32;;;13.00;85.20;;;;;;4169113;28;20069;-74
2022/05/01 10:23:10;;;;;;;15.05;11.55;;;13.20;85.00;;;;;;4163548;28;20066;-74
2022/05/01 10:25:17;;;;;;;15.25;10.90;;;13.30;84.70;;;;;;4164089;28;20065;-74
2022/05/01 10:27:30;;;;;;;13.57;10.10;;;13.50;83.40;;;;;;4164071;28;20923;-74
2022/05/01 10:32:42;;;;;;;15.05;11.00;;;14.00;80.00;;;;;;4161594;28;20054;-73
2022/05/01 10:35:34;;;;;;;11.77;9.77;;;14.40;79.70;;;;;;4174039;28;20100;-74
2022/05/01 10:38:02;;;;;;;13.57;10.05;;;14.60;76.40;;;;;;4162879;28;20161;-73
2022/05/01 10:40:05;;;;;;;11.25;9.90;;;14.90;76.10;;;;;;4162334;28;20136;-74
2022/05/01 10:42:08;;;;;;;10.95;9.73;;;15.20;76.10;;;;;;4159203;28;20061;-74
2022/05/01 10:44:30;;;;;;;14.93;11.50;;;15.40;72.80;;;;;;4161863;28;20136;-74
2022/05/01 10:46:33;;;;;;;13.57;10.73;;;15.40;72.30;;;;;;4164460;28;20180;-74
2022/05/01 10:48:36;;;;;;;15.60;10.43;;;15.10;72.30;;;;;;4163461;28;20168;-74
2022/05/01 10:50:38;;;;;;;16.70;11.13;;;14.80;72.50;;;;;;4164243;28;20679;-73
2022/05/01 10:53:03;;;;;;;16.65;10.32;;;14.50;73.50;;;;;;4163281;28;20066;-74
2022/05/01 10:55:05;;;;;;;13.30;11.27;;;14.30;75.80;;;;;;4162908;28;20065;-74
2022/05/01 10:57:10;;;;;;;14.40;11.00;;;14.30;75.60;;;;;;4164485;28;20256;-74
2022/05/01 10:59:30;;;;;;;17.48;12.13;;;14.30;75.50;;;;;;4163116;28;20062;-74